Montrose Regional Airport Montrose US
ICAO: KMTJ
IATA: MTJ
Category: Medium
Scheduled Services: No

Elevation: 5759 ft
TransAlt. 18000 ft.

Airport Communications:
ASOS:135.225
DENVER CNTR:125.35
DENVER RDO:122.65
CTAF/UNICOM:122.8

KMTJ Zoom In..

Runways:

(A) RW 13 length 7510 ft width 100 ft
---- / hdg 127

(B) RW 17 length 10000 ft width 150 ft
ILS 111.30 / hdg 168

(C) RW 31 length 7510 ft width 100 ft
---- / hdg 307

(D) RW 35 length 10000 ft width 150 ft
---- / hdg 348

Location; KMTJ
Day. 14 / Time. 13.53 Zulu
* Altimeter: 30.14
* Temperature: 17° c. 62.6°f.
* Wind from: 140° Speed 04 kn.
Dewpoint: 04° c.
Visibility: 10 Statute Miles.
Clouds: Clear (automated report).

KMTJ 141353Z AUTO 14004KT 10SM CLR 17/04 A3014 RMK AO2 SLP121 T01720039


Wind From 140°
Speed 04 kn.

 
 
jpsmedia.com for Web Design worldairports.se 2018   terms of use